createdAt,value
2023-02-09T00:00:25.856Z,11.85
2023-02-09T00:02:52.252Z,11.95
2023-02-09T00:05:18.785Z,11.52
2023-02-09T00:07:45.225Z,12.00
2023-02-09T00:10:11.737Z,10.77
2023-02-09T00:12:56.836Z,12.13
2023-02-09T00:15:23.373Z,10.90
2023-02-09T00:17:49.838Z,11.48
2023-02-09T00:20:16.272Z,10.95
2023-02-09T00:22:42.748Z,11.80
2023-02-09T00:25:09.194Z,11.88
2023-02-09T00:27:35.908Z,11.50
2023-02-09T00:30:02.685Z,11.10
2023-02-09T00:32:31.131Z,11.07
2023-02-09T00:34:57.638Z,11.30
2023-02-09T00:37:24.182Z,10.88
2023-02-09T00:39:50.678Z,11.82
2023-02-09T00:42:17.145Z,11.15
2023-02-09T00:44:43.698Z,10.82
2023-02-09T00:47:10.152Z,10.32
2023-02-09T00:49:36.700Z,12.20
2023-02-09T00:52:03.377Z,11.35
2023-02-09T00:54:29.842Z,10.45
2023-02-09T00:56:56.344Z,10.13
2023-02-09T00:59:22.806Z,9.98
2023-02-09T01:01:51.284Z,10.57
2023-02-09T01:04:17.872Z,10.23
2023-02-09T01:06:44.390Z,10.35
2023-02-09T01:09:10.867Z,10.82
2023-02-09T01:11:37.361Z,10.20
2023-02-09T01:14:04.568Z,9.93
2023-02-09T01:16:31.830Z,9.98
2023-02-09T01:18:59.417Z,10.63
2023-02-09T01:21:26.026Z,9.93
2023-02-09T01:23:52.495Z,10.07
2023-02-09T01:26:19.056Z,9.98
2023-02-09T01:28:48.207Z,10.10
2023-02-09T01:31:22.983Z,8.95
2023-02-09T01:33:49.564Z,9.52
2023-02-09T01:36:16.092Z,8.38
2023-02-09T01:38:42.728Z,9.07
2023-02-09T01:41:09.587Z,9.63
2023-02-09T01:43:48.183Z,9.20
2023-02-09T01:46:14.729Z,9.57
2023-02-09T01:48:41.498Z,9.43
2023-02-09T01:51:07.999Z,9.50
2023-02-09T01:53:34.491Z,9.88
2023-02-09T01:56:04.151Z,8.63
2023-02-09T01:58:31.248Z,9.20
2023-02-09T02:00:59.969Z,8.50
2023-02-09T02:03:27.422Z,9.43
2023-02-09T02:05:58.967Z,9.25
2023-02-09T02:08:28.849Z,8.35
2023-02-09T02:10:56.061Z,7.80
2023-02-09T02:13:22.485Z,9.05
2023-02-09T02:15:48.984Z,8.50
2023-02-09T02:18:15.429Z,9.45
2023-02-09T02:20:56.900Z,9.60
2023-02-09T02:23:48.495Z,8.82
2023-02-09T02:26:38.615Z,9.18
2023-02-09T02:29:30.555Z,8.00
2023-02-09T02:32:15.960Z,8.30
2023-02-09T02:34:45.490Z,7.55
2023-02-09T02:37:17.857Z,7.85
2023-02-09T02:39:56.563Z,7.88
2023-02-09T02:42:44.242Z,8.23
2023-02-09T02:45:26.015Z,7.55
2023-02-09T02:47:58.981Z,7.30
2023-02-09T02:50:27.318Z,7.78
2023-02-09T02:52:56.514Z,9.00
2023-02-09T02:55:25.712Z,7.88
2023-02-09T02:57:53.217Z,7.38
2023-02-09T03:00:22.004Z,7.70
2023-02-09T03:02:57.362Z,8.02
2023-02-09T03:05:24.408Z,7.80
2023-02-09T03:07:51.272Z,7.40
2023-02-09T03:10:29.561Z,7.93
2023-02-09T03:13:01.448Z,8.57
2023-02-09T03:15:36.114Z,6.50
2023-02-09T03:18:08.775Z,7.80
2023-02-09T03:20:54.149Z,6.27
2023-02-09T03:23:40.903Z,6.50
2023-02-09T03:26:09.808Z,7.18
2023-02-09T03:28:38.094Z,7.55
2023-02-09T03:31:05.357Z,7.13
2023-02-09T03:33:33.324Z,7.05
2023-02-09T03:36:01.036Z,7.90
2023-02-09T03:38:28.272Z,7.10
2023-02-09T03:40:55.339Z,6.30
2023-02-09T03:43:41.739Z,6.88
2023-02-09T03:46:08.221Z,7.80
2023-02-09T03:48:35.243Z,6.05
2023-02-09T03:51:01.688Z,7.00
2023-02-09T03:53:28.161Z,7.03
2023-02-09T03:55:54.614Z,7.00
2023-02-09T03:58:21.819Z,7.35
2023-02-09T04:00:48.321Z,8.10
2023-02-09T04:03:14.774Z,7.50
2023-02-09T04:05:41.177Z,7.53
2023-02-09T04:08:07.640Z,7.32
2023-02-09T04:10:34.174Z,7.45
2023-02-09T04:13:00.672Z,6.72
2023-02-09T04:15:27.298Z,7.22
2023-02-09T04:17:53.782Z,7.05
2023-02-09T04:20:20.352Z,6.32
2023-02-09T04:22:46.815Z,7.22
2023-02-09T04:25:13.277Z,6.85
2023-02-09T04:27:39.737Z,7.00
2023-02-09T04:30:06.421Z,7.28
2023-02-09T04:32:33.041Z,6.53
2023-02-09T04:34:59.493Z,6.65
2023-02-09T04:37:25.915Z,6.20
2023-02-09T04:39:52.349Z,6.63
2023-02-09T04:42:18.823Z,6.68
2023-02-09T04:44:45.332Z,6.47
2023-02-09T04:47:11.795Z,6.63
2023-02-09T04:49:38.249Z,7.10
2023-02-09T04:52:04.719Z,6.20
2023-02-09T04:54:31.206Z,7.70
2023-02-09T04:57:16.317Z,7.07
2023-02-09T04:59:44.912Z,7.07
2023-02-09T05:02:11.528Z,7.18
2023-02-09T05:04:37.942Z,6.82
2023-02-09T05:07:04.411Z,6.97
2023-02-09T05:09:30.874Z,6.78
2023-02-09T05:11:57.290Z,6.88
2023-02-09T05:14:23.784Z,6.65
2023-02-09T05:16:50.290Z,7.10
2023-02-09T05:19:16.803Z,6.70
2023-02-09T05:21:43.315Z,6.82
2023-02-09T05:24:10.011Z,7.13
2023-02-09T05:26:36.690Z,6.18
2023-02-09T05:29:03.986Z,7.18
2023-02-09T05:31:30.505Z,6.82
2023-02-09T05:33:57.066Z,7.85
2023-02-09T05:36:23.845Z,7.07
2023-02-09T05:38:50.295Z,6.82
2023-02-09T05:41:37.060Z,7.18
2023-02-09T05:44:04.652Z,8.13
2023-02-09T05:46:31.226Z,13.00
2023-02-09T05:48:57.826Z,9.15
2023-02-09T05:51:24.267Z,9.07
2023-02-09T05:53:52.484Z,9.32
2023-02-09T05:56:19.034Z,7.95
2023-02-09T05:58:45.452Z,9.95
2023-02-09T06:01:11.850Z,11.73
2023-02-09T06:03:38.330Z,10.20
2023-02-09T06:06:05.192Z,11.35
2023-02-09T06:08:31.619Z,10.25
2023-02-09T06:10:58.094Z,9.68
2023-02-09T06:13:24.568Z,8.95
2023-02-09T06:15:51.099Z,8.90
2023-02-09T06:18:17.585Z,8.13
2023-02-09T06:20:44.366Z,8.55
2023-02-09T06:23:11.029Z,7.38
2023-02-09T06:25:38.806Z,9.45
2023-02-09T06:28:05.458Z,9.00
2023-02-09T06:30:32.957Z,8.93
2023-02-09T06:32:59.544Z,8.57
2023-02-09T06:35:25.974Z,9.68
2023-02-09T06:37:52.516Z,8.65
2023-02-09T06:40:19.076Z,8.88
2023-02-09T06:42:45.591Z,9.13
2023-02-09T06:45:12.800Z,8.52
2023-02-09T06:47:42.950Z,7.47
2023-02-09T06:50:09.945Z,7.97
2023-02-09T06:52:36.580Z,8.23
2023-02-09T06:55:03.195Z,8.95
2023-02-09T06:57:30.014Z,8.82
2023-02-09T06:59:56.499Z,8.90
2023-02-09T07:02:22.989Z,8.77
2023-02-09T07:04:49.518Z,7.95
2023-02-09T07:07:16.005Z,8.63
2023-02-09T07:09:42.415Z,8.48
2023-02-09T07:12:09.104Z,8.80
2023-02-09T07:14:35.568Z,8.75
2023-02-09T07:17:01.989Z,8.27
2023-02-09T07:19:28.478Z,10.40
2023-02-09T07:21:54.965Z,8.73
2023-02-09T07:24:21.489Z,9.50
2023-02-09T07:26:47.937Z,8.77
2023-02-09T07:29:14.365Z,8.73
2023-02-09T07:31:40.960Z,9.52
2023-02-09T07:34:07.485Z,10.02
2023-02-09T07:36:33.981Z,9.52
2023-02-09T07:39:00.382Z,8.73
2023-02-09T07:41:27.944Z,9.63
2023-02-09T07:43:55.875Z,9.52
2023-02-09T07:46:23.059Z,9.68
2023-02-09T07:48:49.688Z,9.30
2023-02-09T07:51:17.209Z,8.07
2023-02-09T07:53:43.832Z,12.10
2023-02-09T07:56:10.303Z,9.48
2023-02-09T07:58:36.810Z,9.23
2023-02-09T08:01:07.692Z,8.75
2023-02-09T08:03:35.119Z,9.10
2023-02-09T08:06:10.294Z,9.32
2023-02-09T08:08:36.757Z,9.75
2023-02-09T08:11:04.440Z,10.43
2023-02-09T08:13:33.058Z,9.77
2023-02-09T08:16:04.830Z,10.60
2023-02-09T08:18:40.525Z,10.05
2023-02-09T08:21:08.624Z,11.45
2023-02-09T08:23:35.633Z,10.55
2023-02-09T08:26:05.278Z,10.45
2023-02-09T08:28:43.255Z,10.13
2023-02-09T08:31:11.234Z,9.90
2023-02-09T08:33:37.783Z,9.77
2023-02-09T08:36:04.442Z,11.35
2023-02-09T08:38:30.922Z,11.05
2023-02-09T08:40:57.514Z,11.38
2023-02-09T08:43:23.928Z,12.00
2023-02-09T08:45:51.440Z,11.18
2023-02-09T08:48:18.124Z,10.82
2023-02-09T08:50:44.599Z,10.63
2023-02-09T08:53:11.069Z,9.85
2023-02-09T08:55:38.189Z,10.32
2023-02-09T08:58:05.117Z,9.73
2023-02-09T09:00:32.268Z,10.30
2023-02-09T09:02:58.909Z,10.57
2023-02-09T09:05:25.341Z,10.57
2023-02-09T09:07:51.768Z,12.13
2023-02-09T09:10:18.272Z,9.93
2023-02-09T09:12:44.932Z,10.48
2023-02-09T09:15:11.419Z,8.95
2023-02-09T09:17:37.879Z,9.82
2023-02-09T09:20:04.521Z,9.25
2023-02-09T09:22:31.036Z,9.32
2023-02-09T09:24:57.557Z,9.82
2023-02-09T09:27:26.107Z,10.65
2023-02-09T09:29:53.380Z,9.82
2023-02-09T09:32:24.692Z,10.15
2023-02-09T09:34:55.411Z,11.02
2023-02-09T09:37:22.355Z,10.35
2023-02-09T09:39:49.210Z,9.50
2023-02-09T09:42:27.771Z,11.13
2023-02-09T09:44:54.550Z,9.93
2023-02-09T09:47:24.953Z,10.70
2023-02-09T09:49:51.404Z,10.40
2023-02-09T09:52:28.729Z,10.63
2023-02-09T09:54:55.556Z,9.55
2023-02-09T09:57:24.876Z,11.38
2023-02-09T09:59:52.096Z,11.90
2023-02-09T10:02:34.409Z,10.80
2023-02-09T10:05:06.913Z,11.25
2023-02-09T10:07:34.106Z,10.45
2023-02-09T10:10:10.317Z,10.07
2023-02-09T10:12:36.751Z,9.98
2023-02-09T10:15:21.992Z,10.25
2023-02-09T10:17:48.408Z,11.52
2023-02-09T10:20:14.908Z,11.23
2023-02-09T10:22:43.654Z,12.80
2023-02-09T10:25:49.630Z,13.30
2023-02-09T10:28:19.794Z,10.77
2023-02-09T10:30:46.931Z,11.40
2023-02-09T10:33:14.982Z,11.73
2023-02-09T10:35:44.445Z,10.70
2023-02-09T10:38:15.951Z,11.32
2023-02-09T10:40:43.343Z,11.27
2023-02-09T10:43:22.038Z,11.02
2023-02-09T10:45:52.798Z,10.38
2023-02-09T10:48:20.403Z,11.98
2023-02-09T10:50:51.366Z,11.48
2023-02-09T10:53:22.891Z,11.18
2023-02-09T10:55:49.927Z,11.90
2023-02-09T10:58:36.097Z,10.85
2023-02-09T11:01:05.362Z,12.00
2023-02-09T11:03:31.805Z,12.48
2023-02-09T11:06:06.784Z,11.40
2023-02-09T11:08:42.910Z,12.43
2023-02-09T11:11:17.993Z,11.95
2023-02-09T11:13:44.489Z,12.23
2023-02-09T11:16:14.055Z,13.15
2023-02-09T11:18:41.525Z,12.07
2023-02-09T11:21:34.339Z,11.57
2023-02-09T11:24:12.190Z,12.68
2023-02-09T11:26:58.501Z,13.02
2023-02-09T11:29:34.189Z,12.57
2023-02-09T11:32:19.470Z,12.43
2023-02-09T11:34:51.980Z,13.55
2023-02-09T11:37:33.637Z,13.65
2023-02-09T11:40:20.310Z,13.82
2023-02-09T11:43:16.145Z,13.73
2023-02-09T11:45:45.805Z,14.57
2023-02-09T11:48:21.457Z,14.60
2023-02-09T11:51:07.758Z,13.68
2023-02-09T11:53:53.009Z,14.10
2023-02-09T11:56:20.725Z,15.38
2023-02-09T11:59:06.237Z,14.57
2023-02-09T12:01:32.657Z,14.45
2023-02-09T12:04:04.074Z,15.30
2023-02-09T12:06:33.657Z,15.38
2023-02-09T12:09:12.256Z,16.42
2023-02-09T12:11:57.528Z,15.35
2023-02-09T12:14:32.137Z,15.60
2023-02-09T12:17:10.430Z,15.65
2023-02-09T12:19:37.870Z,15.27
2023-02-09T12:22:23.326Z,16.90
2023-02-09T12:25:08.848Z,15.80
2023-02-09T12:27:37.847Z,15.30
2023-02-09T12:30:24.264Z,15.70
2023-02-09T12:32:51.191Z,16.27
2023-02-09T12:35:28.682Z,16.33
2023-02-09T12:38:14.223Z,15.93
2023-02-09T12:40:41.830Z,14.63
2023-02-09T12:43:13.230Z,16.83
2023-02-09T12:45:45.048Z,16.77
2023-02-09T12:48:13.906Z,16.85
2023-02-09T12:50:43.439Z,16.75
2023-02-09T12:53:36.133Z,16.55
2023-02-09T12:56:12.641Z,16.17
2023-02-09T12:58:45.329Z,15.70
2023-02-09T13:01:13.263Z,17.50
2023-02-09T13:03:58.663Z,16.45
2023-02-09T13:06:34.130Z,17.70
2023-02-09T13:09:02.514Z,16.35
2023-02-09T13:11:31.555Z,15.73
2023-02-09T13:14:03.067Z,16.08
2023-02-09T13:16:29.593Z,16.13
2023-02-09T13:19:11.620Z,17.60
2023-02-09T13:21:47.372Z,16.85
2023-02-09T13:24:19.671Z,16.73
2023-02-09T13:26:56.464Z,18.48
2023-02-09T13:29:24.036Z,18.02
2023-02-09T13:32:09.383Z,18.48
2023-02-09T13:34:40.008Z,18.33
2023-02-09T13:37:12.533Z,17.80
2023-02-09T13:39:40.911Z,17.92
2023-02-09T13:42:24.006Z,18.63
2023-02-09T13:44:51.456Z,17.43
2023-02-09T13:47:17.977Z,17.45
2023-02-09T13:49:55.545Z,18.33
2023-02-09T13:52:23.605Z,19.55
2023-02-09T13:54:50.196Z,17.58
2023-02-09T13:57:27.750Z,18.63
2023-02-09T13:59:54.610Z,17.52
2023-02-09T14:02:24.753Z,18.25
2023-02-09T14:04:53.146Z,18.83
2023-02-09T14:07:22.616Z,18.25
2023-02-09T14:09:50.368Z,18.33
2023-02-09T14:12:42.081Z,18.60
2023-02-09T14:15:29.638Z,17.88
2023-02-09T14:17:56.512Z,18.17
2023-02-09T14:20:25.138Z,17.40
2023-02-09T14:22:56.557Z,18.77
2023-02-09T14:25:24.038Z,19.13
2023-02-09T14:27:50.588Z,19.25
2023-02-09T14:30:19.331Z,19.35
2023-02-09T14:32:48.337Z,18.10
2023-02-09T14:35:14.718Z,19.60
2023-02-09T14:37:41.327Z,20.52
2023-02-09T14:40:07.724Z,19.00
2023-02-09T14:42:39.198Z,18.95
2023-02-09T14:45:25.918Z,20.00
2023-02-09T14:47:52.399Z,19.52
2023-02-09T14:50:23.545Z,20.38
2023-02-09T14:52:52.380Z,18.85
2023-02-09T14:55:25.109Z,20.05
2023-02-09T14:57:51.725Z,19.40
2023-02-09T15:00:30.997Z,20.48
2023-02-09T15:03:00.143Z,20.98
2023-02-09T15:05:26.881Z,20.30
2023-02-09T15:07:55.829Z,22.13
2023-02-09T15:10:36.192Z,20.08
2023-02-09T15:13:04.836Z,20.15
2023-02-09T15:15:31.877Z,20.35
2023-02-09T15:17:59.084Z,20.13
2023-02-09T15:20:25.777Z,20.27
2023-02-09T15:22:55.366Z,20.08
2023-02-09T15:25:22.665Z,21.33
2023-02-09T15:27:53.852Z,21.98
2023-02-09T15:30:22.574Z,20.67
2023-02-09T15:32:49.454Z,21.65
2023-02-09T15:35:16.927Z,20.50
2023-02-09T15:37:45.538Z,23.17
2023-02-09T15:40:14.838Z,21.13
2023-02-09T15:43:00.414Z,22.08
2023-02-09T15:45:47.250Z,20.88
2023-02-09T15:48:14.108Z,21.98
2023-02-09T15:50:45.581Z,22.40
2023-02-09T15:53:14.858Z,21.63
2023-02-09T15:55:42.984Z,22.23
2023-02-09T15:58:17.150Z,23.05
2023-02-09T16:00:43.777Z,20.27
2023-02-09T16:03:15.221Z,22.08
2023-02-09T16:05:41.645Z,22.10
2023-02-09T16:08:19.378Z,22.60
2023-02-09T16:10:46.891Z,21.80
2023-02-09T16:13:15.856Z,22.80
2023-02-09T16:15:42.590Z,22.50
2023-02-09T16:18:09.210Z,21.65
2023-02-09T16:20:36.279Z,21.48
2023-02-09T16:23:15.213Z,23.05
2023-02-09T16:25:47.852Z,21.58
2023-02-09T16:28:14.354Z,21.63
2023-02-09T16:30:50.696Z,22.13
2023-02-09T16:33:17.205Z,23.75
2023-02-09T16:35:44.283Z,22.70
2023-02-09T16:38:18.455Z,22.67
2023-02-09T16:40:45.511Z,22.33
2023-02-09T16:43:12.572Z,22.73
2023-02-09T16:45:43.169Z,22.98
2023-02-09T16:48:27.055Z,23.40
2023-02-09T16:50:54.967Z,23.05
2023-02-09T16:53:35.506Z,23.33
2023-02-09T16:56:04.865Z,23.02
2023-02-09T16:58:31.337Z,23.35
2023-02-09T17:00:58.301Z,23.17
2023-02-09T17:03:27.834Z,22.85
2023-02-09T17:05:54.950Z,23.77
2023-02-09T17:08:24.473Z,24.63
2023-02-09T17:10:52.400Z,24.05
2023-02-09T17:13:21.806Z,24.10
2023-02-09T17:15:49.593Z,23.17
2023-02-09T17:18:32.682Z,23.65
2023-02-09T17:21:00.984Z,23.90
2023-02-09T17:23:29.161Z,21.98
2023-02-09T17:25:56.113Z,23.42
2023-02-09T17:28:23.551Z,22.60
2023-02-09T17:30:50.752Z,24.70
2023-02-09T17:33:24.948Z,23.90
2023-02-09T17:38:42.294Z,24.65
2023-02-09T17:41:16.395Z,24.65
2023-02-09T17:43:42.974Z,23.90
2023-02-09T17:46:13.979Z,23.42
2023-02-09T17:48:40.429Z,23.25
2023-02-09T17:51:09.672Z,23.67
2023-02-09T17:53:36.166Z,24.10
2023-02-09T17:56:02.677Z,24.02
2023-02-09T17:58:29.616Z,23.85
2023-02-09T18:00:56.520Z,24.83
2023-02-09T18:03:24.100Z,24.63
2023-02-09T18:05:52.706Z,22.80
2023-02-09T18:08:20.505Z,23.83
2023-02-09T18:10:47.135Z,23.58
2023-02-09T18:13:17.758Z,24.35
2023-02-09T18:15:44.747Z,23.75
2023-02-09T18:18:11.731Z,24.92
2023-02-09T18:20:38.195Z,26.30
2023-02-09T18:23:04.844Z,24.50
2023-02-09T18:25:32.713Z,24.38
2023-02-09T18:27:59.547Z,27.02
2023-02-09T18:30:30.927Z,26.17
2023-02-09T18:32:57.685Z,24.70
2023-02-09T18:35:26.369Z,23.38
2023-02-09T18:37:53.080Z,24.75
2023-02-09T18:40:19.960Z,25.35
2023-02-09T18:42:46.717Z,25.10
2023-02-09T18:45:14.344Z,24.40
2023-02-09T18:47:43.025Z,24.95
2023-02-09T18:50:16.991Z,25.08
2023-02-09T18:52:48.088Z,25.65
2023-02-09T18:55:14.788Z,24.77
2023-02-09T18:57:41.556Z,25.85
2023-02-09T19:00:08.734Z,26.33
2023-02-09T19:02:35.270Z,26.13
2023-02-09T19:05:05.295Z,27.02
2023-02-09T19:07:32.356Z,27.23
2023-02-09T19:09:58.870Z,26.42
2023-02-09T19:12:26.999Z,25.85
2023-02-09T19:14:54.765Z,25.63
2023-02-09T19:17:21.930Z,25.73
2023-02-09T19:19:48.829Z,26.25
2023-02-09T19:22:16.783Z,27.58
2023-02-09T19:24:43.833Z,27.48
2023-02-09T19:27:11.644Z,26.73
2023-02-09T19:29:39.433Z,26.30
2023-02-09T19:32:06.341Z,27.23
2023-02-09T19:34:35.260Z,25.75
2023-02-09T19:37:03.053Z,25.63
2023-02-09T19:39:33.055Z,27.52
2023-02-09T19:42:01.233Z,26.80
2023-02-09T19:44:28.178Z,27.73
2023-02-09T19:46:54.898Z,26.45
2023-02-09T19:49:23.075Z,29.42
2023-02-09T19:51:50.128Z,27.05
2023-02-09T19:54:17.306Z,28.45
2023-02-09T19:56:45.288Z,27.25
2023-02-09T19:59:13.102Z,27.27
2023-02-09T20:01:39.926Z,26.95
2023-02-09T20:04:06.790Z,28.35
2023-02-09T20:06:36.599Z,29.35
2023-02-09T20:09:03.308Z,30.65
2023-02-09T20:11:30.026Z,29.77
2023-02-09T20:13:56.730Z,30.05
2023-02-09T20:16:24.700Z,28.83
2023-02-09T20:18:51.734Z,30.25
2023-02-09T20:21:22.461Z,29.00
2023-02-09T20:23:55.815Z,30.15
2023-02-09T20:26:26.145Z,30.67
2023-02-09T20:28:53.920Z,29.90
2023-02-09T20:31:21.991Z,29.10
2023-02-09T20:33:48.890Z,28.67
2023-02-09T20:36:15.632Z,28.75
2023-02-09T20:38:42.656Z,29.48
2023-02-09T20:41:09.995Z,28.02
2023-02-09T20:43:56.277Z,30.90
2023-02-09T20:46:42.238Z,28.90
2023-02-09T20:49:09.693Z,29.73
2023-02-09T20:51:36.176Z,29.30
2023-02-09T20:54:02.682Z,29.35
2023-02-09T20:56:29.387Z,30.02
2023-02-09T20:58:55.907Z,29.92
2023-02-09T21:01:26.773Z,29.55
2023-02-09T21:03:54.323Z,31.25
2023-02-09T21:06:21.814Z,30.55
2023-02-09T21:08:48.308Z,31.02
2023-02-09T21:11:16.227Z,29.92
2023-02-09T21:13:43.248Z,31.00
2023-02-09T21:16:10.524Z,31.08
2023-02-09T21:18:37.696Z,29.23
2023-02-09T21:21:05.278Z,30.45
2023-02-09T21:23:31.801Z,29.30
2023-02-09T21:26:05.568Z,31.38
2023-02-09T21:28:32.250Z,31.95
2023-02-09T21:30:59.142Z,29.45
2023-02-09T21:33:25.971Z,31.70
2023-02-09T21:35:52.393Z,29.70
2023-02-09T21:38:18.933Z,31.73
2023-02-09T21:40:45.676Z,29.25
2023-02-09T21:43:12.432Z,29.70
2023-02-09T21:45:39.259Z,29.98
2023-02-09T21:48:05.878Z,30.52
2023-02-09T21:50:32.352Z,30.83
2023-02-09T21:52:59.697Z,29.90
2023-02-09T21:55:26.260Z,32.10
2023-02-09T21:57:52.771Z,32.10
2023-02-09T22:00:19.331Z,31.52
2023-02-09T22:02:45.808Z,32.22
2023-02-09T22:05:12.306Z,32.47
2023-02-09T22:07:38.752Z,33.03
2023-02-09T22:10:05.542Z,34.33
2023-02-09T22:12:34.218Z,33.05
2023-02-09T22:15:00.697Z,33.72
2023-02-09T22:17:27.282Z,33.88
2023-02-09T22:19:53.714Z,33.70
2023-02-09T22:22:20.216Z,33.97
2023-02-09T22:24:46.686Z,33.08
2023-02-09T22:27:13.156Z,33.15
2023-02-09T22:29:39.609Z,35.40
2023-02-09T22:32:06.129Z,32.90
2023-02-09T22:34:32.608Z,32.17
2023-02-09T22:36:59.088Z,30.98
2023-02-09T22:39:25.512Z,33.47
2023-02-09T22:41:56.696Z,32.83
2023-02-09T22:44:23.105Z,33.13
2023-02-09T22:46:49.568Z,33.42
2023-02-09T22:49:17.563Z,32.63
2023-02-09T22:51:44.974Z,34.58
2023-02-09T22:54:13.289Z,35.17
2023-02-09T22:56:40.131Z,33.75
2023-02-09T22:59:06.770Z,34.60
2023-02-09T23:01:33.354Z,33.30
2023-02-09T23:03:59.929Z,35.03
2023-02-09T23:06:27.426Z,34.58
2023-02-09T23:09:04.606Z,34.13
2023-02-09T23:11:31.744Z,34.97
2023-02-09T23:14:14.064Z,35.97
2023-02-09T23:16:41.656Z,34.67
2023-02-09T23:19:09.044Z,33.78
2023-02-09T23:21:36.900Z,34.88
2023-02-09T23:24:04.060Z,34.78
2023-02-09T23:26:30.563Z,34.47
2023-02-09T23:28:58.537Z,33.95
2023-02-09T23:31:25.368Z,33.58
2023-02-09T23:33:51.902Z,34.67
2023-02-09T23:36:19.571Z,34.03
2023-02-09T23:38:46.348Z,34.42
2023-02-09T23:41:13.966Z,33.17
2023-02-09T23:43:40.680Z,35.70
2023-02-09T23:46:08.289Z,36.05
2023-02-09T23:48:34.779Z,36.95
2023-02-09T23:51:05.529Z,35.05
2023-02-09T23:53:32.273Z,33.85
2023-02-09T23:56:03.734Z,33.35
2023-02-09T23:58:49.741Z,33.55
